Latest Weather Observations for Horsham

IDV60801

Issued at 5:33 am EDT Monday 20 February 2017 (issued every 30 minutes, with the page automatically refreshed every 10 minutes)

About weather observations | Map of weather stations | Latest weather observations for VIC | Other Formats
Station Details ID: 079100 Name: HORSHAM AERODROME Lat: -36.67 Lon: 142.17 Height: 133.8 m
Data from the previous 72 hours. | See also: Recent months at Horsham
Date/Time
EDT
Temp
°C
App
Temp
°C
Dew
Point
°C
Rel
Hum
%
Delta-T
°C
Wind Press
QNH
hPa
Press
MSL
hPa
Rain since
9am
mm
Dir  Spd
km/h
Gust
km/h
Spd
kts
Gust
kts
20/05:30am 6.9 4.1 5.1 88 0.8 WSW 9 11 5 6 1014.5 1014.0 0.4
20/05:00am 6.2 3.3 4.7 90 0.7 W 9 9 5 5 1014.3 1013.8 0.4
20/04:30am 5.3 1.8 3.6 89 0.7 WNW 11 11 6 6 1014.2 1013.7 0.4
20/04:00am 6.1 3.1 4.1 87 0.9 W 9 11 5 6 1014.1 1013.6 0.4
20/03:30am 6.3 3.9 4.5 88 0.8 WSW 6 7 3 4 1014.3 1013.8 0.4
20/03:00am 6.1 3.6 3.9 86 0.9 NW 6 7 3 4 1014.3 1013.8 0.4
20/02:30am 7.7 4.5 5.2 84 1.1 WSW 11 15 6 8 1014.1 1013.6 0.4
20/02:00am 7.8 4.6 5.1 83 1.2 WSW 11 15 6 8 1014.2 1013.7 0.4
20/01:30am 8.2 4.7 5.3 82 1.3 WSW 13 15 7 8 1014.3 1013.8 0.4
20/01:00am 8.5 4.2 5.3 80 1.4 WSW 17 20 9 11 1014.3 1013.8 0.4
20/12:30am 8.8 5.3 5.5 80 1.5 WSW 13 17 7 9 1014.3 1013.8 0.4
20/12:00am 8.8 5.6 5.0 77 1.7 WSW 11 15 6 8 1014.3 1013.8 0.4
 
Date/Time
EDT
Temp
°C
App
Temp
°C
Dew
Point
°C
Rel
Hum
%
Delta-T
°C
Wind Press
QNH
hPa
Press
MSL
hPa
Rain since
9am
mm
Dir  Spd
km/h
Gust
km/h
Spd
kts
Gust
kts
19/11:30pm 8.9 5.3 4.9 76 1.8 WSW 13 19 7 10 1014.2 1013.7 0.4
19/11:00pm 9.6 5.2 4.8 72 2.2 SW 17 19 9 10 1014.3 1013.8 0.4
19/10:30pm 10.4 6.0 5.0 69 2.5 SW 17 20 9 11 1014.4 1013.9 0.4
19/10:00pm 11.0 6.3 5.3 68 2.6 SSW 19 22 10 12 1014.1 1013.6 0.4
19/09:30pm 11.8 6.8 4.8 62 3.2 SSW 20 26 11 14 1013.7 1013.2 0.4
19/09:00pm 12.8 6.5 4.0 55 4.0 SSW 26 32 14 17 1013.2 1012.8 0.4
19/08:30pm 13.7 7.4 4.0 52 4.4 SSW 26 32 14 17 1012.8 1012.4 0.4
19/08:00pm 14.3 6.7 4.0 50 4.7 SSW 33 52 18 28 1012.4 1011.9 0.4
19/07:30pm 15.6 8.4 4.9 49 5.1 SSW 32 43 17 23 1011.8 1011.3 0.4
19/07:01pm 17.2 9.6 3.1 39 6.5 SSW 32 52 17 28 1011.3 1010.8 0.4
19/07:00pm 17.5 10.0 3.4 39 6.6 SSW 32 46 17 25 1011.2 1010.7 0.4
19/06:30pm 17.0 8.7 4.0 42 6.1 SSW 37 50 20 27 1010.9 1010.4 0.4
19/06:07pm 16.9 8.3 4.6 44 5.9 SW 39 57 21 31 1010.6 1010.1 0.4
19/06:00pm 17.7 9.0 3.9 40 6.5 SW 39 56 21 30 1010.6 1010.1 0.4
19/05:51pm 17.8 8.1 2.9 37 6.9 SW 43 54 23 29 1010.5 1010.0 0.4
19/05:35pm 19.0 8.4 3.2 35 7.4 SW 48 67 26 36 1010.4 1009.9 0.4
19/05:30pm 18.5 7.1 2.8 35 7.3 SW 52 67 28 36 1010.5 1010.0 0.4
19/05:18pm 18.8 9.8 2.6 34 7.5 SW 39 57 21 31 1010.4 1009.9 0.4
19/05:00pm 18.4 10.3 5.3 42 6.4 SW 37 50 20 27 1010.6 1010.1 0.4
19/04:43pm 17.2 8.4 5.5 46 5.7 SW 41 59 22 32 1010.5 1010.0 0.4
19/04:30pm 17.5 11.3 6.1 47 5.6 SW 28 41 15 22 1010.3 1009.8 0.4
19/04:00pm 17.0 10.2 6.8 51 5.1 WSW 32 46 17 25 1010.6 1010.1 0.4
19/03:42pm 16.6 10.6 7.0 53 4.8 WSW 28 46 15 25 1010.8 1010.3 0.4
19/03:30pm 16.6 10.3 8.8 60 4.0 WSW 32 44 17 24 1011.1 1010.6 0.2
19/03:12pm 16.2 8.7 6.3 52 4.9 SW 35 59 19 32 1011.2 1010.7 0.2
19/03:00pm 18.8 12.6 7.9 49 5.6 SW 30 44 16 24 1011.0 1010.5 0.2
19/02:30pm 15.6 9.0 7.9 60 3.9 SW 32 44 17 24 1011.4 1010.9 0.2
19/02:00pm 17.2 10.6 8.6 57 4.5 SW 33 48 18 26 1011.4 1010.9 0.2
19/01:30pm 16.2 8.3 7.9 58 4.2 SW 39 52 21 28 1011.7 1011.2 0.2
19/01:12pm 16.4 8.3 8.6 60 4.0 WSW 41 57 22 31 1011.7 1011.2 0.2
19/01:03pm 18.3 11.0 7.4 49 5.5 WSW 35 54 19 29 1011.6 1011.1 0.2
19/01:00pm 17.5 11.0 8.9 57 4.5 WSW 33 46 18 25 1011.7 1011.2 0.2
19/12:45pm 16.5 10.7 8.0 57 4.3 WSW 28 50 15 27 1012.0 1011.5 0.2
19/12:30pm 13.9 9.0 10.1 78 2.0 WSW 26 35 14 19 1012.3 1011.8 0.2
19/12:11pm 14.0 7.2 9.2 73 2.5 SW 35 46 19 25 1012.6 1012.1 0.2
19/12:00pm 14.2 7.7 10.4 78 2.0 SSW 35 48 19 26 1012.4 1011.9 0.2
19/11:56am 16.2 9.6 7.9 58 4.2 SW 32 48 17 26 1012.3 1011.8 0.0
19/11:30am 16.6 10.7 7.3 54 4.7 WSW 28 37 15 20 1012.5 1012.0 0.0
19/11:00am 16.4 9.1 7.3 55 4.6 SW 35 46 19 25 1012.8 1012.4 0.0
19/10:47am 16.1 9.7 6.8 54 4.6 WSW 30 48 16 26 1012.8 1012.4 0.0
19/10:30am 15.5 9.2 7.3 58 4.1 W 30 46 16 25 1012.9 1012.5 0.0
19/10:00am 14.2 8.5 8.4 68 2.9 W 28 41 15 22 1013.1 1012.7 0.0
19/09:30am 13.1 8.3 9.0 76 2.1 W 24 32 13 17 1013.1 1012.7 0.0
19/09:00am 11.4 8.1 9.5 88 1.0 W 17 20 9 11 1013.1 1012.7 0.0
19/08:30am 10.8 6.0 8.9 88 0.9 W 24 32 13 17 1013.3 1012.9 0.0
19/08:00am 10.8 7.2 8.4 85 1.2 W 17 20 9 11 1012.9 1012.5 0.0
19/07:30am 9.5 5.2 6.9 84 1.2 W 19 24 10 13 1013.0 1012.6 0.0
19/07:00am 9.1 4.7 6.5 84 1.2 W 19 24 10 13 1012.6 1012.1 0.0
19/06:30am 9.7 5.2 6.8 82 1.4 WNW 20 24 11 13 1012.5 1012.0 0.0
19/06:00am 9.3 4.7 6.4 82 1.4 WNW 20 24 11 13 1012.7 1012.2 0.0
19/05:30am 8.9 5.2 6.2 83 1.2 WNW 15 20 8 11 1012.6 1012.1 0.0
19/05:00am 8.0 4.2 5.6 85 1.1 WNW 15 19 8 10 1012.5 1012.0 0.0
19/04:30am 7.2 3.3 5.2 87 0.9 WNW 15 19 8 10 1012.8 1012.4 0.0
19/04:00am 7.4 3.8 5.2 86 1.0 NW 13 17 7 9 1012.8 1012.4 0.0
19/03:30am 6.1 1.9 3.8 85 1.0 NW 15 17 8 9 1012.9 1012.5 0.0
19/03:00am 6.2 2.0 4.0 86 0.9 WNW 15 17 8 9 1013.2 1012.8 0.0
19/02:30am 5.5 1.9 2.8 83 1.1 WNW 11 13 6 7 1013.6 1013.1 0.0
19/02:00am 6.5 2.6 3.5 81 1.3 WNW 13 15 7 8 1014.0 1013.5 0.0
19/01:30am 8.5 4.8 4.7 77 1.7 W 13 15 7 8 1014.2 1013.7 0.0
19/01:00am 6.5 2.8 2.6 76 1.6 NW 11 13 6 7 1014.5 1014.0 0.0
19/12:30am 10.0 6.6 4.2 67 2.6 WSW 11 13 6 7 1014.6 1014.1 0.0
19/12:00am 10.1 6.7 4.0 66 2.7 WSW 11 13 6 7 1014.6 1014.1 0.0
 
Date/Time
EDT
Temp
°C
App
Temp
°C
Dew
Point
°C
Rel
Hum
%
Delta-T
°C
Wind Press
QNH
hPa
Press
MSL
hPa
Rain since
9am
mm
Dir  Spd
km/h
Gust
km/h
Spd
kts
Gust
kts
18/11:30pm 10.7 7.7 4.2 64 2.9 SW 9 13 5 7 1014.5 1014.0 0.0
18/11:00pm 10.9 7.5 3.9 62 3.1 SW 11 15 6 8 1014.5 1014.0 0.0
18/10:30pm 12.0 7.1 4.0 58 3.6 SSW 19 24 10 13 1014.3 1013.8 0.0
18/10:00pm 12.9 7.7 3.8 54 4.1 SW 20 28 11 15 1014.0 1013.5 0.0
18/09:30pm 13.1 8.0 3.2 51 4.4 SW 19 24 10 13 1013.8 1013.3 0.0
18/09:00pm 13.4 8.8 3.5 51 4.5 SW 17 20 9 11 1013.3 1012.9 0.0
18/08:30pm 14.6 10.1 4.0 49 4.9 SW 17 20 9 11 1013.0 1012.6 0.0
18/08:00pm 16.1 10.0 2.9 41 6.0 SW 24 35 13 19 1012.7 1012.2 0.0
18/07:30pm 17.4 10.6 3.3 39 6.6 SW 28 33 15 18 1012.4 1011.9 0.0
18/07:00pm 18.0 9.5 3.1 37 6.9 SW 37 46 20 25 1012.1 1011.6 0.0
18/06:30pm 18.6 10.9 3.3 36 7.2 SW 33 44 18 24 1011.9 1011.4 0.0
18/06:00pm 18.4 11.7 3.5 37 7.0 SW 28 44 15 24 1011.7 1011.2 0.0
18/05:30pm 17.7 10.2 4.6 42 6.3 SW 33 44 18 24 1011.8 1011.3 0.0
18/05:00pm 19.2 12.0 3.0 34 7.6 WSW 30 52 16 28 1011.9 1011.4 0.0
18/04:54pm 19.4 12.6 3.2 34 7.6 SW 28 52 15 28 1012.0 1011.5 0.0
18/04:30pm 17.8 10.7 5.4 44 6.0 SSW 32 44 17 24 1012.2 1011.7 0.0
18/04:21pm 17.7 10.4 5.6 45 5.9 WSW 33 46 18 25 1012.3 1011.8 0.0
18/04:17pm 19.2 12.6 4.2 37 7.2 WSW 28 46 15 25 1012.2 1011.7 0.0
18/04:00pm 18.4 11.9 4.9 41 6.5 WSW 28 37 15 20 1012.3 1011.8 0.0
18/03:32pm 17.4 8.9 8.5 56 4.6 WSW 43 61 23 33 1012.5 1012.0 0.0
18/03:30pm 18.5 10.4 10.1 58 4.5 WSW 43 61 23 33 1012.5 1012.0 0.0
18/03:23pm 18.9 12.5 5.0 40 6.8 W 28 57 15 31 1012.3 1011.8 0.0
18/03:00pm 19.6 13.6 3.3 34 7.7 W 24 39 13 21 1012.3 1011.8 0.0
18/02:30pm 19.0 12.4 4.0 37 7.2 W 28 41 15 22 1012.7 1012.2 0.0
18/02:00pm 18.4 11.9 2.7 35 7.3 W 26 44 14 24 1012.7 1012.2 0.0
18/01:30pm 18.4 12.3 2.7 35 7.3 SW 24 35 13 19 1013.0 1012.6 0.0
18/01:00pm 18.3 12.2 2.6 35 7.3 WSW 24 35 13 19 1013.0 1012.6 0.0
18/12:30pm 17.9 11.4 2.6 36 7.0 SW 26 41 14 22 1013.2 1012.8 0.0
18/12:00pm 17.5 10.9 2.3 36 6.9 SW 26 59 14 32 1013.2 1012.8 0.0
18/11:57am 17.6 11.1 2.4 36 7.0 SSW 26 59 14 32 1013.1 1012.7 0.0
18/11:30am 16.9 10.9 3.2 40 6.3 SW 24 37 13 20 1013.3 1012.9 0.0
18/11:00am 15.9 9.3 4.3 46 5.4 SW 28 41 15 22 1013.8 1013.3 0.0
18/10:30am 16.1 10.1 5.1 48 5.3 SW 26 43 14 23 1013.8 1013.3 0.0
18/10:00am 15.4 10.1 5.0 50 4.9 SW 22 32 12 17 1013.7 1013.2 0.0
18/09:30am 14.1 10.1 6.7 61 3.6 SSW 17 22 9 12 1013.6 1013.1 0.0
18/09:00am 13.1 8.8 8.0 71 2.5 SW 20 24 11 13 1013.3 1012.9 0.0
18/08:30am 12.0 8.9 8.7 80 1.7 WSW 15 20 8 11 1012.9 1012.5 0.0
18/08:00am 10.6 7.8 8.4 86 1.1 WSW 13 15 7 8 1012.6 1012.1 0.0
18/07:30am 10.4 8.3 8.3 87 1.0 WSW 9 11 5 6 1012.1 1011.6 0.0
18/07:00am 10.7 9.0 8.3 85 1.2 WSW 7 9 4 5 1011.7 1011.2 0.0
18/06:30am 10.8 8.7 8.4 85 1.2 WSW 9 11 5 6 1011.6 1011.1 0.0
18/06:00am 10.6 8.4 8.0 84 1.3 WSW 9 11 5 6 1011.5 1011.0 0.0
18/05:30am 9.8 7.2 7.6 86 1.1 WSW 11 13 6 7 1011.4 1010.9 0.0
18/05:00am 9.6 7.2 7.2 85 1.1 W 9 13 5 7 1011.3 1010.8 0.0
18/04:30am 10.5 7.1 7.7 83 1.4 WSW 15 19 8 10 1011.3 1010.8 0.0
18/04:00am 10.9 7.6 8.0 82 1.4 WSW 15 19 8 10 1011.2 1010.7 0.0
18/03:30am 11.4 8.9 8.3 81 1.5 W 11 15 6 8 1011.1 1010.6 0.0
18/03:00am 11.3 9.2 8.3 82 1.5 W 9 13 5 7 1011.4 1010.9 0.0
18/02:30am 11.9 9.8 8.4 79 1.7 W 9 13 5 7 1011.6 1011.1 0.0
18/02:00am 11.6 9.1 8.3 80 1.6 WSW 11 15 6 8 1011.7 1011.2 0.0
18/01:30am 12.1 9.8 8.9 81 1.6 W 11 13 6 7 1011.9 1011.4 0.0
18/01:00am 11.5 9.5 8.7 83 1.4 W 9 11 5 6 1011.9 1011.4 0.0
18/12:30am 13.2 10.5 9.1 76 2.1 W 13 15 7 8 1012.0 1011.5 0.0
18/12:00am 13.5 11.2 10.3 81 1.7 W 13 15 7 8 1012.0 1011.5 0.0
 
Date/Time
EDT
Temp
°C
App
Temp
°C
Dew
Point
°C
Rel
Hum
%
Delta-T
°C
Wind Press
QNH
hPa
Press
MSL
hPa
Rain since
9am
mm
Dir  Spd
km/h
Gust
km/h
Spd
kts
Gust
kts
17/11:30pm 13.6 11.1 11.0 84 1.4 WSW 15 19 8 10 1012.1 1011.6 0.0
17/11:00pm 13.9 11.8 11.1 83 1.5 WSW 13 15 7 8 1012.0 1011.5 0.0
17/10:30pm 14.6 12.5 11.2 80 1.8 WSW 13 17 7 9 1012.0 1011.5 0.0
17/10:00pm 14.8 13.0 11.0 78 2.0 WSW 11 15 6 8 1011.9 1011.4 0.0
17/09:30pm 15.6 12.7 11.0 74 2.5 SW 17 22 9 12 1011.8 1011.3 0.0
17/09:00pm 16.9 13.6 11.6 71 2.9 WSW 20 28 11 15 1011.7 1011.2 0.0
17/08:30pm 17.9 13.0 11.2 65 3.7 WSW 28 39 15 21 1011.2 1010.7 0.0
17/08:00pm 18.8 12.6 11.4 62 4.1 SW 35 46 19 25 1010.8 1010.3 0.0
17/07:30pm 21.3 14.9 10.8 51 5.8 WSW 35 44 19 24 1009.8 1009.3 0.0
17/07:00pm 22.5 16.6 9.0 42 7.3 WSW 30 43 16 23 1009.4 1008.9 0.0
17/06:36pm 23.7 17.4 9.7 41 7.7 WSW 33 52 18 28 1009.3 1008.8 0.0
17/06:30pm 23.5 17.2 9.1 40 7.8 WSW 32 41 17 22 1009.2 1008.7 0.0
17/06:03pm 23.7 17.2 8.2 37 8.3 WSW 32 50 17 27 1009.1 1008.6 0.0
17/06:00pm 24.0 17.6 8.4 37 8.4 WSW 32 43 17 23 1009.0 1008.5 0.0
17/05:30pm 24.7 18.9 7.8 34 9.0 WSW 28 46 15 25 1008.8 1008.3 0.0
17/05:00pm 23.7 16.8 7.3 35 8.6 WSW 33 46 18 25 1008.8 1008.3 0.0
17/04:40pm 25.6 20.0 8.6 34 9.2 W 28 50 15 27 1008.8 1008.3 0.0
17/04:30pm 23.6 18.7 8.5 38 8.1 WSW 24 32 13 17 1009.0 1008.5 0.0
17/04:00pm 23.0 17.5 9.0 41 7.6 W 28 39 15 21 1009.5 1009.0 0.0
17/03:30pm 21.9 16.7 8.8 43 7.0 W 26 39 14 21 1010.0 1009.5 0.0
17/03:00pm 22.2 17.8 9.0 43 7.1 W 22 35 12 19 1010.4 1009.9 0.0
17/02:30pm 21.9 15.6 9.1 44 6.9 W 32 41 17 22 1010.8 1010.3 0.0
17/02:00pm 20.9 15.4 9.2 47 6.3 W 28 39 15 21 1011.1 1010.6 0.0
17/01:46pm 20.6 15.1 9.2 48 6.1 W 28 46 15 25 1011.4 1010.9 0.0
17/01:30pm 20.2 15.1 9.2 49 5.9 W 26 33 14 18 1011.6 1011.1 0.0
17/01:00pm 19.4 13.9 9.0 51 5.5 W 28 39 15 21 1011.9 1011.4 0.0
17/12:30pm 19.3 14.4 8.6 50 5.6 W 24 35 13 19 1011.9 1011.4 0.0
17/12:00pm 19.3 14.8 8.6 50 5.6 WSW 22 28 12 15 1011.9 1011.4 0.0
17/11:30am 18.7 13.8 8.4 51 5.4 WSW 24 33 13 18 1012.2 1011.7 0.0
17/11:00am 17.8 12.8 8.1 53 5.0 WSW 24 35 13 19 1012.1 1011.6 0.0
17/10:30am 17.6 13.5 8.7 56 4.6 W 20 30 11 16 1012.0 1011.5 0.0
17/10:00am 17.7 13.8 8.8 56 4.6 W 19 22 10 12 1011.8 1011.3 0.0
17/09:30am 16.5 13.1 9.0 61 3.9 W 17 20 9 11 1011.8 1011.3 0.0
17/09:00am 13.6 10.9 8.9 73 2.4 WNW 13 17 7 9 1011.7 1011.2 0.0
17/08:30am 12.8 10.4 8.5 75 2.2 WNW 11 17 6 9 1011.6 1011.1 0.0
17/08:00am 10.0 9.1 7.8 86 1.1 NNW 2 7 1 4 1011.2 1010.7 0.0
17/07:30am 9.1 8.3 6.4 83 1.3 CALM 0 0 0 0 1010.9 1010.4 0.0
17/07:00am 9.5 7.1 6.9 84 1.2 WSW 9 11 5 6 1010.7 1010.2 0.0
17/06:30am 9.3 6.8 6.7 84 1.2 WSW 9 13 5 7 1010.6 1010.1 0.0
17/06:00am 9.5 6.7 6.8 83 1.3 WSW 11 15 6 8 1010.4 1009.9 0.0

Other Formats:

Comma delimited format used in spreadsheet applications
http://www.bom.gov.au/fwo/IDV60801/IDV60801.95839.axf

JavaScript Object Notation format (JSON) in row-major order
http://www.bom.gov.au/fwo/IDV60801/IDV60801.95839.json